Terminal Aerodrome Forecast
Issued by NWS

Home | Current Version | Previous Version | Text Only | Print | Product List | Glossary On
Versions: 1 2 3 4 5 6 7 8 9 10 11 12 13
000
FTUS41 KBTV 171700
TAFMSS
TAF
KMSS 171730Z 1718/1818 23011KT P6SM BKN050
     FM180400 26006KT P6SM VCSH BKN025
     FM181000 35006KT P6SM BKN035
     FM181400 35010KT P6SM SCT050=

USA.gov is the U.S. government's official web portal to all federal, state and local government web resources and services.